createdAt,value
2022-08-08T00:00:55.399Z,4.23
2022-08-08T00:04:38.732Z,3.20
2022-08-08T00:07:13.964Z,3.57
2022-08-08T00:12:31.843Z,3.63
2022-08-08T00:18:02.711Z,4.60
2022-08-08T00:20:24.540Z,3.30
2022-08-08T00:22:58.984Z,3.03
2022-08-08T00:25:39.112Z,2.90
2022-08-08T00:28:08.028Z,2.60
2022-08-08T00:30:45.245Z,3.03
2022-08-08T00:33:18.032Z,3.00
2022-08-08T00:35:53.458Z,2.87
2022-08-08T00:38:32.070Z,3.47
2022-08-08T00:44:28.717Z,2.77
2022-08-08T00:48:01.926Z,3.47
2022-08-08T00:50:48.309Z,4.33
2022-08-08T00:53:29.287Z,3.23
2022-08-08T00:56:26.954Z,2.80
2022-08-08T00:59:46.506Z,2.50
2022-08-08T01:05:28.918Z,2.63
2022-08-08T01:08:20.525Z,2.60
2022-08-08T01:11:30.641Z,3.60
2022-08-08T01:14:53.199Z,2.73
2022-08-08T01:17:53.280Z,4.47
2022-08-08T01:20:44.358Z,2.60
2022-08-08T01:24:05.870Z,3.20
2022-08-08T01:26:26.548Z,3.23
2022-08-08T01:29:28.106Z,2.87
2022-08-08T01:32:35.792Z,2.53
2022-08-08T01:35:53.992Z,3.00
2022-08-08T01:39:34.871Z,2.83
2022-08-08T01:42:08.075Z,2.97
2022-08-08T01:45:01.099Z,3.50
2022-08-08T01:48:14.500Z,4.07
2022-08-08T01:50:21.393Z,7.90
2022-08-08T01:54:06.667Z,2.97
2022-08-08T01:56:27.351Z,5.33
2022-08-08T01:58:39.762Z,3.93
2022-08-08T02:01:15.875Z,2.90
2022-08-08T02:03:58.108Z,2.70
2022-08-08T02:06:43.214Z,3.00
2022-08-08T02:09:15.890Z,4.37
2022-08-08T02:11:59.416Z,3.13
2022-08-08T02:14:26.357Z,7.90
2022-08-08T02:17:00.685Z,3.00
2022-08-08T02:20:07.897Z,2.70
2022-08-08T02:22:31.376Z,2.63
2022-08-08T02:25:15.017Z,4.67
2022-08-08T02:27:51.439Z,3.37
2022-08-08T02:30:24.778Z,3.07
2022-08-08T02:33:07.182Z,3.20
2022-08-08T02:39:00.866Z,7.43
2022-08-08T02:41:58.470Z,6.73
2022-08-08T02:45:03.756Z,3.33
2022-08-08T02:48:09.650Z,2.87
2022-08-08T02:50:56.380Z,3.37
2022-08-08T02:53:41.026Z,2.67
2022-08-08T02:56:57.855Z,3.23
2022-08-08T03:00:31.236Z,3.60
2022-08-08T03:05:00.908Z,3.60
2022-08-08T03:06:50.191Z,3.83
2022-08-08T03:09:59.512Z,3.07
2022-08-08T03:15:53.995Z,4.00
2022-08-08T03:16:08.843Z,3.40
2022-08-08T03:18:52.158Z,4.47
2022-08-08T03:21:26.960Z,3.70
2022-08-08T03:23:59.648Z,4.23
2022-08-08T03:26:30.898Z,3.90
2022-08-08T03:29:17.178Z,5.43
2022-08-08T03:32:06.451Z,4.10
2022-08-08T03:34:28.857Z,4.23
2022-08-08T03:36:59.711Z,4.00
2022-08-08T03:39:30.505Z,4.87
2022-08-08T03:42:26.893Z,4.60
2022-08-08T03:44:38.489Z,5.63
2022-08-08T03:47:19.880Z,6.70
2022-08-08T03:50:00.360Z,7.77
2022-08-08T03:52:14.042Z,6.57
2022-08-08T03:55:02.667Z,6.60
2022-08-08T03:58:30.758Z,6.43
2022-08-08T04:00:02.543Z,7.63
2022-08-08T04:02:33.346Z,5.80
2022-08-08T04:04:58.653Z,11.87
2022-08-08T04:07:30.757Z,9.27
2022-08-08T04:10:05.388Z,9.47
2022-08-08T04:12:35.870Z,11.47
2022-08-08T04:15:11.010Z,8.87
2022-08-08T04:17:46.727Z,11.27
2022-08-08T04:20:14.108Z,10.07
2022-08-08T04:22:44.864Z,9.13
2022-08-08T04:25:17.282Z,10.40
2022-08-08T04:28:34.306Z,10.43
2022-08-08T04:30:20.496Z,12.50
2022-08-08T04:32:53.231Z,12.20
2022-08-08T04:35:24.096Z,9.23
2022-08-08T04:37:55.629Z,9.93
2022-08-08T04:40:27.237Z,10.77
2022-08-08T04:43:00.862Z,9.50
2022-08-08T04:45:30.573Z,10.43
2022-08-08T04:48:02.829Z,8.43
2022-08-08T04:50:38.343Z,8.83
2022-08-08T04:53:13.932Z,8.20
2022-08-08T04:55:55.515Z,10.83
2022-08-08T04:58:13.570Z,11.40
2022-08-08T05:00:47.561Z,9.33
2022-08-08T05:03:19.028Z,8.43
2022-08-08T05:05:53.532Z,9.43
2022-08-08T05:08:27.075Z,8.43
2022-08-08T05:10:55.404Z,6.90
2022-08-08T05:13:26.502Z,6.20
2022-08-08T05:16:52.890Z,6.67
2022-08-08T05:18:29.607Z,6.10
2022-08-08T05:21:00.556Z,5.80
2022-08-08T05:23:33.030Z,6.17
2022-08-08T05:26:05.970Z,7.37
2022-08-08T05:28:55.869Z,8.27
2022-08-08T05:32:02.247Z,11.03
2022-08-08T05:33:49.267Z,8.70
2022-08-08T05:36:23.176Z,9.53
2022-08-08T05:38:51.437Z,10.07
2022-08-08T05:41:25.758Z,9.83
2022-08-08T05:44:03.804Z,8.97
2022-08-08T05:46:35.725Z,8.57
2022-08-08T05:49:11.139Z,8.00
2022-08-08T05:51:48.490Z,5.17
2022-08-08T05:54:28.970Z,4.70
2022-08-08T05:56:48.763Z,6.07
2022-08-08T05:59:59.590Z,5.70
2022-08-08T06:01:57.995Z,11.27
2022-08-08T06:04:30.941Z,13.53
2022-08-08T06:07:04.085Z,11.00
2022-08-08T06:09:58.556Z,9.17
2022-08-08T06:12:11.345Z,10.13
2022-08-08T06:14:47.755Z,8.30
2022-08-08T06:17:19.192Z,11.80
2022-08-08T06:19:50.916Z,12.60
2022-08-08T06:22:38.051Z,11.27
2022-08-08T06:27:38.705Z,16.40
2022-08-08T06:30:20.245Z,10.10
2022-08-08T06:32:50.206Z,10.90
2022-08-08T06:36:07.349Z,11.40
2022-08-08T06:37:55.987Z,10.00
2022-08-08T06:40:31.923Z,11.30
2022-08-08T06:43:06.170Z,9.03
2022-08-08T06:45:39.720Z,8.73
2022-08-08T06:48:12.739Z,9.07
2022-08-08T06:50:46.601Z,7.77
2022-08-08T06:53:20.528Z,8.73
2022-08-08T06:56:02.218Z,10.37
2022-08-08T06:58:30.254Z,7.93
2022-08-08T07:00:58.123Z,9.77
2022-08-08T07:03:52.004Z,6.67
2022-08-08T07:06:08.251Z,9.50
2022-08-08T07:08:41.151Z,8.30
2022-08-08T07:11:22.202Z,7.10
2022-08-08T07:14:00.549Z,8.30
2022-08-08T07:16:28.880Z,15.57
2022-08-08T07:19:06.700Z,10.50
2022-08-08T07:21:44.575Z,9.43
2022-08-08T07:24:19.787Z,11.67
2022-08-08T07:26:54.597Z,10.37
2022-08-08T07:30:01.810Z,7.57
2022-08-08T07:31:59.364Z,7.27
2022-08-08T07:34:32.621Z,7.93
2022-08-08T07:37:11.919Z,7.87
2022-08-08T07:39:45.486Z,7.00
2022-08-08T07:42:18.913Z,7.97
2022-08-08T07:45:05.425Z,8.00
2022-08-08T07:50:13.474Z,5.42
2022-08-08T07:52:48.229Z,5.23
2022-08-08T07:55:28.733Z,6.73
2022-08-08T07:58:07.144Z,5.25
2022-08-08T08:00:41.948Z,6.87
2022-08-08T08:03:20.523Z,5.90
2022-08-08T08:05:51.780Z,4.85
2022-08-08T08:11:04.841Z,5.85
2022-08-08T08:13:43.067Z,4.40
2022-08-08T08:16:12.622Z,5.45
2022-08-08T08:18:55.619Z,4.97
2022-08-08T08:21:19.700Z,8.10
2022-08-08T08:23:51.095Z,5.40
2022-08-08T08:26:27.439Z,5.30
2022-08-08T08:28:54.653Z,6.53
2022-08-08T08:31:26.408Z,6.28
2022-08-08T08:33:57.821Z,5.75
2022-08-08T08:36:28.689Z,7.03
2022-08-08T08:39:07.546Z,7.12
2022-08-08T08:41:39.461Z,5.30
2022-08-08T08:44:14.164Z,5.95
2022-08-08T08:46:50.789Z,7.17
2022-08-08T08:49:18.452Z,5.55
2022-08-08T08:51:51.957Z,9.03
2022-08-08T08:54:25.607Z,7.12
2022-08-08T08:56:57.569Z,6.55
2022-08-08T09:00:00.334Z,7.35
2022-08-08T09:02:05.812Z,4.80
2022-08-08T09:04:45.591Z,4.50
2022-08-08T09:07:14.093Z,4.22
2022-08-08T09:09:57.122Z,8.55
2022-08-08T09:12:22.617Z,4.30
2022-08-08T09:14:56.042Z,4.95
2022-08-08T09:17:41.107Z,8.40
2022-08-08T09:21:59.393Z,5.03
2022-08-08T09:22:35.743Z,4.33
2022-08-08T09:25:09.597Z,7.65
2022-08-08T09:27:57.071Z,4.62
2022-08-08T09:30:17.318Z,5.10
2022-08-08T09:33:12.494Z,4.10
2022-08-08T09:35:32.144Z,10.45
2022-08-08T09:38:02.704Z,4.67
2022-08-08T09:40:46.567Z,4.85
2022-08-08T09:43:16.675Z,4.47
2022-08-08T09:48:35.786Z,5.60
2022-08-08T09:51:05.054Z,5.42
2022-08-08T09:53:59.047Z,4.80
2022-08-08T09:56:22.172Z,3.95
2022-08-08T09:58:52.230Z,4.28
2022-08-08T10:02:01.944Z,5.33
2022-08-08T10:04:02.118Z,4.00
2022-08-08T10:06:38.190Z,9.15
2022-08-08T10:09:08.708Z,3.65
2022-08-08T10:12:27.983Z,4.87
2022-08-08T10:14:28.343Z,4.75
2022-08-08T10:16:47.458Z,3.62
2022-08-08T10:19:19.778Z,4.08
2022-08-08T10:21:53.228Z,4.28
2022-08-08T10:24:29.599Z,4.03
2022-08-08T10:29:58.650Z,3.10
2022-08-08T10:32:37.664Z,3.15
2022-08-08T10:35:20.584Z,4.05
2022-08-08T10:37:53.048Z,3.65
2022-08-08T10:40:26.235Z,3.00
2022-08-08T10:43:00.682Z,2.85
2022-08-08T10:45:39.039Z,3.25
2022-08-08T10:48:08.454Z,3.25
2022-08-08T10:50:42.517Z,2.80
2022-08-08T10:53:16.488Z,2.35
2022-08-08T10:55:47.845Z,2.30
2022-08-08T10:58:22.357Z,1.90
2022-08-08T11:01:02.150Z,1.80
2022-08-08T11:03:37.180Z,1.95
2022-08-08T11:06:02.682Z,2.27
2022-08-08T11:08:40.900Z,1.87
2022-08-08T11:12:00.761Z,1.77
2022-08-08T11:13:52.072Z,1.80
2022-08-08T11:16:32.384Z,3.45
2022-08-08T11:18:58.763Z,2.37
2022-08-08T11:24:11.335Z,2.02
2022-08-08T11:26:56.994Z,1.90
2022-08-08T11:29:17.565Z,3.98
2022-08-08T11:31:52.478Z,1.90
2022-08-08T11:34:34.486Z,3.42
2022-08-08T11:37:01.103Z,2.47
2022-08-08T11:39:37.169Z,2.72
2022-08-08T11:42:09.180Z,3.02
2022-08-08T11:44:41.301Z,2.05
2022-08-08T11:47:17.161Z,2.85
2022-08-08T11:49:49.121Z,1.77
2022-08-08T11:52:27.411Z,3.00
2022-08-08T11:54:54.492Z,3.35
2022-08-08T11:57:30.206Z,2.80
2022-08-08T12:00:05.926Z,1.90
2022-08-08T12:02:37.290Z,2.12
2022-08-08T12:05:13.734Z,2.08
2022-08-08T12:07:52.481Z,2.17
2022-08-08T12:10:24.778Z,2.83
2022-08-08T12:13:03.625Z,1.82
2022-08-08T12:15:41.991Z,3.12
2022-08-08T12:18:21.197Z,2.22
2022-08-08T12:20:50.782Z,3.17
2022-08-08T12:23:43.861Z,2.10
2022-08-08T12:26:17.186Z,2.17
2022-08-08T12:28:58.356Z,2.15
2022-08-08T12:31:39.075Z,4.37
2022-08-08T12:34:10.779Z,2.17
2022-08-08T12:36:46.555Z,2.62
2022-08-08T12:39:15.381Z,2.02
2022-08-08T12:41:57.222Z,3.95
2022-08-08T12:44:32.118Z,2.15
2022-08-08T12:47:01.167Z,2.52
2022-08-08T12:49:42.954Z,1.87
2022-08-08T12:52:06.321Z,3.33
2022-08-08T12:54:41.006Z,2.10
2022-08-08T12:57:18.747Z,2.00
2022-08-08T13:00:04.924Z,4.08
2022-08-08T13:02:29.148Z,1.95
2022-08-08T13:05:02.392Z,2.00
2022-08-08T13:08:03.949Z,3.67
2022-08-08T13:10:14.847Z,2.25
2022-08-08T13:12:49.376Z,1.90
2022-08-08T13:15:22.620Z,1.70
2022-08-08T13:18:10.193Z,2.10
2022-08-08T13:20:27.640Z,1.87
2022-08-08T13:23:31.135Z,2.60
2022-08-08T13:28:11.955Z,2.22
2022-08-08T13:30:46.440Z,1.95
2022-08-08T13:33:19.557Z,2.65
2022-08-08T13:35:51.072Z,1.80
2022-08-08T13:38:21.707Z,1.87
2022-08-08T13:40:54.233Z,3.25
2022-08-08T13:43:26.875Z,1.67
2022-08-08T13:46:08.659Z,3.17
2022-08-08T13:49:11.803Z,4.28
2022-08-08T13:51:25.084Z,3.45
2022-08-08T13:54:00.760Z,2.55
2022-08-08T13:56:41.574Z,1.92
2022-08-08T13:59:08.438Z,3.02
2022-08-08T14:01:52.876Z,2.92
2022-08-08T14:04:13.267Z,2.10
2022-08-08T14:06:47.844Z,1.75
2022-08-08T14:09:29.972Z,1.80
2022-08-08T14:11:52.531Z,1.85
2022-08-08T14:14:27.263Z,1.98
2022-08-08T14:17:00.605Z,1.57
2022-08-08T14:19:58.311Z,3.10
2022-08-08T14:22:24.328Z,3.30
2022-08-08T14:24:58.877Z,3.40
2022-08-08T14:27:33.200Z,2.00
2022-08-08T14:30:17.885Z,2.65
2022-08-08T14:32:52.798Z,2.92
2022-08-08T14:35:35.111Z,2.95
2022-08-08T14:37:59.982Z,2.67
2022-08-08T14:40:32.033Z,1.82
2022-08-08T14:43:31.159Z,2.05
2022-08-08T14:46:02.278Z,3.72
2022-08-08T14:48:11.036Z,1.62
2022-08-08T14:50:42.597Z,2.00
2022-08-08T14:53:16.240Z,1.92
2022-08-08T14:55:46.913Z,1.62
2022-08-08T14:58:20.246Z,2.62
2022-08-08T15:00:53.030Z,2.85
2022-08-08T15:03:25.834Z,3.30
2022-08-08T15:05:58.740Z,1.65
2022-08-08T15:08:35.226Z,2.40
2022-08-08T15:11:04.835Z,3.62
2022-08-08T15:13:40.867Z,3.15
2022-08-08T15:16:11.748Z,3.65
2022-08-08T15:18:44.300Z,3.27
2022-08-08T15:21:15.663Z,1.72
2022-08-08T15:23:51.538Z,2.33
2022-08-08T15:26:19.484Z,3.75
2022-08-08T15:28:53.940Z,6.90
2022-08-08T15:31:55.967Z,2.20
2022-08-08T15:33:59.869Z,4.08
2022-08-08T15:36:29.003Z,2.15
2022-08-08T15:38:59.671Z,2.30
2022-08-08T15:41:43.779Z,2.12
2022-08-08T15:44:09.894Z,1.62
2022-08-08T15:46:38.631Z,3.40
2022-08-08T15:49:10.968Z,4.37
2022-08-08T15:51:42.630Z,1.87
2022-08-08T15:54:37.434Z,2.60
2022-08-08T15:57:07.476Z,4.08
2022-08-08T16:00:25.415Z,2.17
2022-08-08T16:02:14.269Z,4.47
2022-08-08T16:04:43.427Z,2.27
2022-08-08T16:07:18.095Z,1.62
2022-08-08T16:13:15.271Z,1.75
2022-08-08T16:13:26.426Z,2.00
2022-08-08T16:14:55.179Z,1.75
2022-08-08T16:17:57.682Z,1.70
2022-08-08T16:20:00.881Z,3.62
2022-08-08T16:22:31.162Z,1.50
2022-08-08T16:25:05.831Z,3.20
2022-08-08T16:27:36.911Z,2.15
2022-08-08T16:30:14.532Z,2.27
2022-08-08T16:32:43.762Z,3.77
2022-08-08T16:35:18.832Z,1.60
2022-08-08T16:37:48.831Z,1.90
2022-08-08T16:40:21.280Z,2.35
2022-08-08T16:42:54.430Z,1.60
2022-08-08T16:46:36.570Z,4.20
2022-08-08T16:47:58.681Z,2.02
2022-08-08T16:50:30.486Z,3.70
2022-08-08T16:55:18.389Z,3.65
2022-08-08T16:55:54.482Z,1.52
2022-08-08T16:58:15.325Z,1.75
2022-08-08T17:00:38.588Z,2.90
2022-08-08T17:03:09.262Z,3.52
2022-08-08T17:05:45.104Z,4.90
2022-08-08T17:08:13.791Z,2.00
2022-08-08T17:10:57.497Z,2.75
2022-08-08T17:13:17.077Z,2.47
2022-08-08T17:15:52.824Z,1.70
2022-08-08T17:18:20.368Z,2.00
2022-08-08T17:20:53.678Z,8.90
2022-08-08T17:24:00.648Z,4.72
2022-08-08T17:25:58.558Z,1.90
2022-08-08T17:28:35.106Z,2.70
2022-08-08T17:31:39.507Z,2.87
2022-08-08T17:34:36.854Z,1.95
2022-08-08T17:36:21.850Z,2.05
2022-08-08T17:38:43.386Z,2.20
2022-08-08T17:41:15.021Z,6.75
2022-08-08T17:44:01.278Z,2.15
2022-08-08T17:46:37.907Z,2.00
2022-08-08T17:49:10.353Z,2.37
2022-08-08T17:51:43.608Z,2.25
2022-08-08T17:54:22.054Z,1.75
2022-08-08T17:56:48.252Z,3.12
2022-08-08T17:59:23.390Z,3.83
2022-08-08T18:01:57.072Z,3.17
2022-08-08T18:04:31.256Z,1.57
2022-08-08T18:08:02.811Z,6.60
2022-08-08T18:09:53.953Z,2.12
2022-08-08T18:12:24.729Z,4.20
2022-08-08T18:14:55.921Z,3.05
2022-08-08T18:18:05.491Z,1.80
2022-08-08T18:20:42.916Z,1.80
2022-08-08T18:22:50.966Z,1.62
2022-08-08T18:25:08.229Z,1.87
2022-08-08T18:27:43.219Z,2.17
2022-08-08T18:30:13.571Z,3.22
2022-08-08T18:32:44.429Z,2.22
2022-08-08T18:35:17.779Z,1.37
2022-08-08T18:37:48.856Z,2.65
2022-08-08T18:40:19.648Z,2.17
2022-08-08T18:42:51.981Z,2.85
2022-08-08T18:46:00.609Z,1.57
2022-08-08T18:47:57.280Z,3.47
2022-08-08T18:50:27.906Z,3.47
2022-08-08T18:52:58.597Z,1.75
2022-08-08T18:55:29.236Z,1.47
2022-08-08T18:57:59.935Z,3.00
2022-08-08T19:00:31.116Z,3.52
2022-08-08T19:03:04.117Z,1.10
2022-08-08T19:05:45.556Z,2.35
2022-08-08T19:08:24.490Z,1.20
2022-08-08T19:10:48.037Z,2.22
2022-08-08T19:13:21.443Z,2.37
2022-08-08T19:15:55.907Z,1.85
2022-08-08T19:18:33.190Z,2.27
2022-08-08T19:20:57.924Z,1.62
2022-08-08T19:23:28.744Z,2.83
2022-08-08T19:26:29.187Z,2.87
2022-08-08T19:28:33.633Z,4.47
2022-08-08T19:31:08.960Z,3.20
2022-08-08T19:33:39.458Z,2.75
2022-08-08T19:36:14.491Z,3.58
2022-08-08T19:41:33.959Z,2.58
2022-08-08T19:44:13.225Z,2.62
2022-08-08T19:46:37.160Z,3.40
2022-08-08T19:49:07.881Z,1.50
2022-08-08T19:51:43.642Z,0.80
2022-08-08T19:54:13.518Z,3.30
2022-08-08T19:56:49.083Z,2.15
2022-08-08T19:59:18.024Z,1.30
2022-08-08T20:02:03.325Z,1.67
2022-08-08T20:04:23.698Z,3.77
2022-08-08T20:06:56.841Z,1.90
2022-08-08T20:09:30.068Z,2.22
2022-08-08T20:11:59.705Z,2.45
2022-08-08T20:14:35.906Z,4.08
2022-08-08T20:17:05.889Z,1.80
2022-08-08T20:19:42.352Z,1.87
2022-08-08T20:22:20.487Z,2.60
2022-08-08T20:24:43.485Z,3.08
2022-08-08T20:27:20.698Z,1.30
2022-08-08T20:29:55.744Z,1.45
2022-08-08T20:32:22.507Z,2.08
2022-08-08T20:35:01.562Z,1.00
2022-08-08T20:37:47.094Z,2.33
2022-08-08T20:40:00.157Z,1.85
2022-08-08T20:42:31.268Z,1.67
2022-08-08T20:45:01.905Z,4.08
2022-08-08T20:47:36.511Z,1.67
2022-08-08T20:50:05.955Z,8.98
2022-08-08T20:52:37.947Z,1.00
2022-08-08T20:57:51.334Z,4.35
2022-08-08T21:00:23.448Z,1.65
2022-08-08T21:02:54.600Z,1.32
2022-08-08T21:05:31.830Z,1.62
2022-08-08T21:08:34.277Z,1.27
2022-08-08T21:10:32.651Z,4.12
2022-08-08T21:13:05.170Z,2.33
2022-08-08T21:16:04.770Z,3.62
2022-08-08T21:18:12.143Z,3.92
2022-08-08T21:20:50.752Z,1.83
2022-08-08T21:23:18.354Z,3.03
2022-08-08T21:25:51.183Z,1.17
2022-08-08T21:28:35.727Z,1.67
2022-08-08T21:30:54.976Z,4.50
2022-08-08T21:33:26.976Z,4.27
2022-08-08T21:36:16.530Z,1.47
2022-08-08T21:38:31.510Z,2.90
2022-08-08T21:41:02.588Z,1.70
2022-08-08T21:43:35.026Z,1.43
2022-08-08T21:48:07.324Z,1.83
2022-08-08T21:48:44.579Z,1.53
2022-08-08T21:51:14.757Z,2.87
2022-08-08T21:54:32.492Z,1.53
2022-08-08T21:56:33.859Z,3.80
2022-08-08T21:58:55.036Z,1.87
2022-08-08T22:01:27.994Z,1.33
2022-08-08T22:03:58.143Z,2.23
2022-08-08T22:06:31.819Z,1.03
2022-08-08T22:09:03.269Z,1.80
2022-08-08T22:11:59.549Z,1.97
2022-08-08T22:14:08.604Z,1.23
2022-08-08T22:16:41.200Z,1.77
2022-08-08T22:19:16.246Z,1.63
2022-08-08T22:21:45.474Z,3.60
2022-08-08T22:24:17.604Z,1.40
2022-08-08T22:27:01.735Z,2.30
2022-08-08T22:29:59.737Z,1.27
2022-08-08T22:31:58.650Z,2.43
2022-08-08T22:34:27.885Z,1.43
2022-08-08T22:36:59.585Z,2.30
2022-08-08T22:39:39.455Z,3.93
2022-08-08T22:42:05.820Z,2.30
2022-08-08T22:44:36.964Z,0.87
2022-08-08T22:47:17.706Z,2.17
2022-08-08T22:49:42.062Z,2.00
2022-08-08T22:52:12.975Z,1.10
2022-08-08T22:54:56.019Z,1.20
2022-08-08T22:57:18.661Z,4.20
2022-08-08T22:59:59.543Z,2.30
2022-08-08T23:02:23.884Z,2.20
2022-08-08T23:04:58.572Z,1.33
2022-08-08T23:07:51.202Z,1.40
2022-08-08T23:10:07.889Z,3.60
2022-08-08T23:12:41.451Z,1.23
2022-08-08T23:16:38.417Z,1.40
2022-08-08T23:17:54.512Z,3.23
2022-08-08T23:20:19.814Z,2.60
2022-08-08T23:22:51.170Z,2.83
2022-08-08T23:25:22.278Z,4.23
2022-08-08T23:27:54.243Z,1.77
2022-08-08T23:30:26.116Z,1.50
2022-08-08T23:32:58.126Z,3.20
2022-08-08T23:35:34.260Z,1.50
2022-08-08T23:38:03.988Z,1.93
2022-08-08T23:40:35.054Z,1.20
2022-08-08T23:43:06.954Z,2.20
2022-08-08T23:49:01.957Z,1.83
2022-08-08T23:49:07.121Z,4.60
2022-08-08T23:50:43.895Z,1.37
2022-08-08T23:53:16.598Z,1.23
2022-08-08T23:55:48.995Z,1.30
2022-08-08T23:58:32.021Z,2.47
